createdAt,value
2019-02-20T00:01:19.381Z,100264.27
2019-02-20T00:03:52.472Z,100268.16
2019-02-20T00:06:25.965Z,100269.81
2019-02-20T00:09:00.469Z,100279.57
2019-02-20T00:11:34.039Z,100282.81
2019-02-20T00:14:07.295Z,100287.40
2019-02-20T00:16:41.232Z,100288.27
2019-02-20T00:19:14.732Z,100287.49
2019-02-20T00:21:47.888Z,100278.38
2019-02-20T00:24:21.204Z,100281.84
2019-02-20T00:26:54.674Z,100282.65
2019-02-20T00:29:28.199Z,100285.66
2019-02-20T00:32:01.267Z,100283.67
2019-02-20T00:34:34.366Z,100284.41
2019-02-20T00:37:08.143Z,100284.87
2019-02-20T00:39:41.492Z,100292.42
2019-02-20T00:42:15.295Z,100287.73
2019-02-20T00:45:07.815Z,100288.84
2019-02-20T00:48:03.833Z,100290.34
2019-02-20T00:50:37.757Z,100285.36
2019-02-20T00:53:36.568Z,100288.20
2019-02-20T00:56:09.756Z,100290.25
2019-02-20T00:58:43.546Z,100289.69
2019-02-20T01:01:17.442Z,100296.82
2019-02-20T01:03:50.535Z,100295.81
2019-02-20T01:06:23.942Z,100293.27
2019-02-20T01:08:57.145Z,100289.44
2019-02-20T01:11:30.627Z,100293.66
2019-02-20T01:14:03.204Z,100292.64
2019-02-20T01:16:37.053Z,100290.16
2019-02-20T01:19:10.040Z,100297.05
2019-02-20T01:21:42.687Z,100290.86
2019-02-20T01:24:15.673Z,100290.46
2019-02-20T01:26:49.079Z,100291.33
2019-02-20T01:29:22.692Z,100293.18
2019-02-20T01:31:55.659Z,100294.36
2019-02-20T01:34:27.920Z,100295.70
2019-02-20T01:37:01.325Z,100296.25
2019-02-20T01:39:34.504Z,100291.81
2019-02-20T19:32:30.919Z,100625.03
2019-02-20T19:35:51.643Z,100631.65
2019-02-20T19:39:02.636Z,100629.14
2019-02-20T19:42:20.464Z,100633.26
2019-02-20T19:45:37.170Z,100633.59
2019-02-20T19:48:33.999Z,100633.37
2019-02-20T19:51:34.689Z,100625.72
2019-02-20T19:54:50.487Z,100624.82
2019-02-20T19:58:13.308Z,100620.00
2019-02-20T20:01:04.429Z,100618.85
2019-02-20T20:04:18.965Z,100609.24
2019-02-20T20:07:58.025Z,100609.58
2019-02-20T20:10:58.664Z,100612.03
2019-02-20T20:14:16.117Z,100612.23
2019-02-20T20:17:23.284Z,100610.75
2019-02-20T20:20:12.170Z,100615.79
2019-02-20T20:23:10.225Z,100612.95
2019-02-20T20:26:04.882Z,100618.09
2019-02-20T20:29:28.071Z,100620.30
2019-02-20T20:32:17.579Z,100617.59
2019-02-20T20:35:23.339Z,100614.45
2019-02-20T20:38:27.597Z,100611.06
2019-02-20T20:41:27.672Z,100609.03
2019-02-20T20:44:37.681Z,100614.56
2019-02-20T20:48:11.222Z,100606.19
2019-02-20T20:51:23.043Z,100609.56
2019-02-20T20:54:33.775Z,100609.48
2019-02-20T20:57:28.971Z,100611.94
2019-02-20T21:00:31.146Z,100616.75
2019-02-20T21:03:07.288Z,100618.58
2019-02-20T21:06:03.469Z,100622.17
2019-02-20T21:09:33.763Z,100611.13
2019-02-20T21:12:53.795Z,100608.30
2019-02-20T21:16:23.589Z,100613.91
2019-02-20T21:19:42.040Z,100608.41
2019-02-20T21:22:51.386Z,100610.05
2019-02-20T21:26:01.160Z,100606.48
2019-02-20T21:29:28.371Z,100608.08
2019-02-20T21:32:26.758Z,100606.75
2019-02-20T21:35:17.301Z,100608.77
2019-02-20T21:38:38.311Z,100609.84
2019-02-20T21:41:19.288Z,100605.31
2019-02-20T21:44:26.045Z,100614.32
2019-02-20T21:47:10.219Z,100613.79
2019-02-20T21:50:20.900Z,100623.27
2019-02-20T21:53:18.898Z,100616.77
2019-02-20T21:56:25.692Z,100616.28
2019-02-20T21:59:39.066Z,100613.84
2019-02-20T22:02:49.015Z,100620.17
2019-02-20T22:06:15.319Z,100627.42
2019-02-20T22:09:19.255Z,100634.73
2019-02-20T22:12:36.769Z,100631.91
2019-02-20T22:15:28.674Z,100630.92
2019-02-20T22:18:42.003Z,100634.55
2019-02-20T22:22:06.129Z,100634.11
2019-02-20T22:25:25.610Z,100630.23
2019-02-20T22:28:34.593Z,100634.36
2019-02-20T22:31:55.351Z,100638.57
2019-02-20T22:35:05.573Z,100631.41
2019-02-20T22:38:21.394Z,100632.34
2019-02-20T22:41:42.506Z,100630.37
2019-02-20T22:45:08.321Z,100628.04
2019-02-20T22:48:31.434Z,100628.62
2019-02-20T22:51:53.929Z,100626.25
2019-02-20T22:55:13.537Z,100634.15
2019-02-20T22:58:03.222Z,100633.05
2019-02-20T23:01:07.106Z,100632.42
2019-02-20T23:04:30.789Z,100636.03
2019-02-20T23:08:03.613Z,100636.34
2019-02-20T23:11:27.562Z,100636.25
2019-02-20T23:14:23.483Z,100639.76
2019-02-20T23:16:56.055Z,100643.81
2019-02-20T23:19:29.587Z,100649.00
2019-02-20T23:22:03.370Z,100641.98
2019-02-20T23:24:36.776Z,100647.64
2019-02-20T23:27:10.917Z,100649.70
2019-02-20T23:29:44.855Z,100651.27
2019-02-20T23:32:18.319Z,100648.75
2019-02-20T23:34:50.995Z,100651.92
2019-02-20T23:37:24.544Z,100652.42
2019-02-20T23:39:57.568Z,100651.00
2019-02-20T23:42:30.729Z,100652.86
2019-02-20T23:45:04.356Z,100647.78
2019-02-20T23:47:37.763Z,100650.45
2019-02-20T23:50:11.362Z,100655.39
2019-02-20T23:52:44.988Z,100659.06
2019-02-20T23:55:18.863Z,100660.43
2019-02-20T23:57:51.580Z,100661.78
